Time;durP1;ratioP1;P1;durP2;ratioP2;P2;SDS_P1;SDS_P2;PMS_P1;PMS_P2;Temp;Humidity;BMP_temperature;BMP_pressure;BME280_temperature;BME280_humidity;BME280_pressure;Samples;Min_cycle;Max_cycle;Signal;HPM_P1;HPM_P2
2024/01/04 00:01:46;;;;;;;0.60;0.40;;;6.90;99.90;;;;;;5041463;28;20207;-80
2024/01/04 00:04:13;;;;;;;0.63;0.38;;;6.90;99.90;;;;;;5040741;28;20649;-80
2024/01/04 00:06:44;;;;;;;0.45;0.45;;;6.80;99.90;;;;;;5040566;28;20202;-80
2024/01/04 00:09:11;;;;;;;2.45;0.40;;;6.80;99.90;;;;;;5040191;27;20207;-80
2024/01/04 00:11:37;;;;;;;0.30;0.30;;;6.80;99.90;;;;;;5047275;28;20655;-81
2024/01/04 00:14:06;;;;;;;0.30;0.30;;;6.80;99.90;;;;;;5048873;28;20564;-80
2024/01/04 00:16:33;;;;;;;1.05;0.95;;;6.80;99.90;;;;;;5049646;28;20305;-80
2024/01/04 00:19:02;;;;;;;0.35;0.35;;;6.70;99.90;;;;;;5046158;28;20302;-80
2024/01/04 00:21:29;;;;;;;0.43;0.40;;;6.70;99.90;;;;;;5056843;27;20202;-80
2024/01/04 00:23:57;;;;;;;0.45;0.20;;;6.70;99.90;;;;;;5050080;28;20196;-80
2024/01/04 00:26:24;;;;;;;4.15;0.57;;;6.70;99.90;;;;;;5051683;28;20683;-80
2024/01/04 00:28:51;;;;;;;0.98;0.88;;;6.80;99.90;;;;;;5056846;28;20208;-80
2024/01/04 00:31:17;;;;;;;0.50;0.40;;;6.70;99.90;;;;;;5055804;28;20306;-80
2024/01/04 00:33:44;;;;;;;1.33;0.40;;;6.70;99.90;;;;;;5057377;28;20204;-80
2024/01/04 00:36:13;;;;;;;0.40;0.30;;;6.70;99.90;;;;;;5053725;28;20204;-80
2024/01/04 00:38:40;;;;;;;0.65;0.57;;;6.70;99.90;;;;;;5048727;27;20232;-80
2024/01/04 00:41:07;;;;;;;0.30;0.30;;;6.70;99.90;;;;;;5053217;28;20215;-80
2024/01/04 00:43:34;;;;;;;3.95;0.63;;;6.70;99.90;;;;;;5055659;28;20652;-79
2024/01/04 00:46:01;;;;;;;0.95;0.40;;;6.70;99.90;;;;;;5046317;28;20192;-79
2024/01/04 00:48:28;;;;;;;0.95;0.85;;;6.70;99.90;;;;;;5049225;28;20211;-79
2024/01/04 00:50:54;;;;;;;0.77;0.28;;;6.70;99.90;;;;;;5047031;28;20485;-79
2024/01/04 00:53:23;;;;;;;0.30;0.30;;;6.60;99.90;;;;;;5052403;28;20206;-79
2024/01/04 00:55:49;;;;;;;4.15;0.73;;;6.60;99.90;;;;;;5043625;28;20599;-79
2024/01/04 00:58:16;;;;;;;1.33;0.90;;;6.50;99.90;;;;;;5042157;28;20677;-79
2024/01/04 01:00:43;;;;;;;1.75;0.82;;;6.70;99.90;;;;;;5039329;28;20199;-80
2024/01/04 01:03:10;;;;;;;0.50;0.30;;;6.60;99.90;;;;;;5048893;28;20208;-79
2024/01/04 01:05:37;;;;;;;1.42;0.82;;;6.50;99.90;;;;;;5046665;28;20192;-79
2024/01/04 01:08:04;;;;;;;0.30;0.30;;;6.50;99.90;;;;;;5046113;28;20209;-80
2024/01/04 01:10:34;;;;;;;0.60;0.60;;;6.50;99.90;;;;;;5045187;27;20287;-79
2024/01/04 01:13:01;;;;;;;4.10;0.75;;;6.50;99.90;;;;;;5041351;27;20192;-79
2024/01/04 01:15:28;;;;;;;2.47;0.65;;;6.50;99.90;;;;;;5053587;28;20234;-80
2024/01/04 01:17:55;;;;;;;1.05;0.40;;;6.50;99.90;;;;;;5057227;28;20230;-79
2024/01/04 01:20:22;;;;;;;1.10;0.57;;;6.50;99.90;;;;;;5061498;28;20198;-79
2024/01/04 01:22:48;;;;;;;0.40;0.30;;;6.50;99.90;;;;;;5055834;28;20211;-81
2024/01/04 01:25:15;;;;;;;0.85;0.50;;;6.50;99.90;;;;;;5047925;28;20203;-80
2024/01/04 01:27:44;;;;;;;0.40;0.20;;;6.50;99.90;;;;;;5045615;28;20202;-80
2024/01/04 01:30:11;;;;;;;0.38;0.28;;;6.40;99.90;;;;;;5047370;28;20204;-80
2024/01/04 01:32:37;;;;;;;1.75;0.68;;;6.50;99.90;;;;;;5055305;28;20424;-79
2024/01/04 01:35:05;;;;;;;0.90;0.45;;;6.50;99.90;;;;;;5057212;28;20201;-80
2024/01/04 01:37:32;;;;;;;3.03;0.47;;;6.50;99.90;;;;;;5049163;27;20202;-80
2024/01/04 01:39:58;;;;;;;0.43;0.38;;;6.50;99.90;;;;;;5039173;28;20303;-80
2024/01/04 01:42:25;;;;;;;0.80;0.60;;;6.40;99.90;;;;;;5049052;28;20199;-80
2024/01/04 01:44:53;;;;;;;0.40;0.30;;;6.40;99.90;;;;;;5050851;28;20197;-80
2024/01/04 01:47:22;;;;;;;0.50;0.30;;;6.40;99.90;;;;;;5047186;28;20204;-80
2024/01/04 01:49:49;;;;;;;0.80;0.52;;;6.50;99.90;;;;;;5063839;27;20214;-80
2024/01/04 01:52:16;;;;;;;0.30;0.20;;;6.50;99.90;;;;;;5049044;28;20210;-79
2024/01/04 01:54:43;;;;;;;0.45;0.30;;;6.50;99.90;;;;;;5042762;28;20286;-79
2024/01/04 01:57:10;;;;;;;0.40;0.40;;;6.50;99.90;;;;;;5046459;28;20333;-79
2024/01/04 01:59:37;;;;;;;8.02;0.75;;;6.50;99.90;;;;;;5037155;28;20227;-79
2024/01/04 02:02:05;;;;;;;4.43;0.68;;;6.40;99.90;;;;;;5046134;28;20201;-79
2024/01/04 02:04:32;;;;;;;0.30;0.30;;;6.40;99.90;;;;;;5043315;28;20621;-79
2024/01/04 02:06:59;;;;;;;0.30;0.20;;;6.40;99.90;;;;;;5045564;28;20316;-79
2024/01/04 02:09:26;;;;;;;0.43;0.25;;;6.30;99.90;;;;;;5044841;28;20204;-81
2024/01/04 02:12:04;;;;;;;0.93;0.43;;;6.20;99.90;;;;;;5038685;28;20204;-81
2024/01/04 02:14:31;;;;;;;0.40;0.38;;;6.30;99.90;;;;;;5045605;27;20268;-79
2024/01/04 02:16:59;;;;;;;0.30;0.20;;;6.20;99.90;;;;;;5051774;28;20648;-80
2024/01/04 02:19:28;;;;;;;0.40;0.30;;;6.10;99.90;;;;;;5058992;28;21013;-79
2024/01/04 02:21:56;;;;;;;0.30;0.30;;;6.00;99.90;;;;;;5060443;28;20207;-80
2024/01/04 02:24:26;;;;;;;0.43;0.43;;;6.10;99.90;;;;;;5051492;27;20192;-80
2024/01/04 02:26:54;;;;;;;0.60;0.35;;;6.10;99.90;;;;;;5057772;28;20847;-80
2024/01/04 02:29:22;;;;;;;0.30;0.20;;;6.10;99.90;;;;;;5055367;28;20191;-80
2024/01/04 02:31:50;;;;;;;0.50;0.43;;;6.10;99.90;;;;;;5053595;27;20205;-79
2024/01/04 02:34:18;;;;;;;0.40;0.30;;;6.10;99.90;;;;;;5043442;28;20199;-79
2024/01/04 02:36:46;;;;;;;3.25;0.63;;;6.00;99.90;;;;;;5040096;28;20208;-79
2024/01/04 02:39:14;;;;;;;1.20;0.55;;;5.90;99.90;;;;;;5042817;28;20235;-79
2024/01/04 02:41:43;;;;;;;0.70;0.30;;;5.90;99.90;;;;;;5043694;28;20281;-79
2024/01/04 02:44:11;;;;;;;0.47;0.43;;;5.90;99.90;;;;;;5052305;27;20204;-79
2024/01/04 02:46:38;;;;;;;0.30;0.20;;;5.90;99.90;;;;;;5049745;28;20199;-79
2024/01/04 02:49:06;;;;;;;0.40;0.25;;;5.90;99.90;;;;;;5052038;27;20568;-79
2024/01/04 02:51:33;;;;;;;0.30;0.20;;;5.90;99.90;;;;;;5063535;27;20199;-79
2024/01/04 02:54:00;;;;;;;0.70;0.22;;;5.80;99.90;;;;;;5043760;28;20211;-78
2024/01/04 02:56:29;;;;;;;0.30;0.20;;;6.00;99.90;;;;;;5048122;28;20565;-79
2024/01/04 02:58:59;;;;;;;1.10;0.50;;;5.90;99.90;;;;;;5046292;28;20272;-80
2024/01/04 03:01:27;;;;;;;0.93;0.75;;;5.90;99.90;;;;;;5046724;27;20244;-80
2024/01/04 03:03:55;;;;;;;0.50;0.30;;;5.90;99.90;;;;;;5040425;28;20208;-79
2024/01/04 03:06:23;;;;;;;0.30;0.17;;;5.90;99.90;;;;;;5043223;28;20197;-79
2024/01/04 03:08:51;;;;;;;0.68;0.22;;;5.80;99.90;;;;;;5041061;28;20905;-79
2024/01/04 03:11:19;;;;;;;0.30;0.20;;;5.80;99.90;;;;;;5037088;28;20209;-79
2024/01/04 03:13:47;;;;;;;0.40;0.30;;;5.80;99.90;;;;;;5044090;28;20203;-79
2024/01/04 03:16:16;;;;;;;0.30;0.10;;;5.80;99.90;;;;;;5054664;28;20187;-79
2024/01/04 03:18:43;;;;;;;0.55;0.35;;;5.80;99.90;;;;;;5058294;28;20219;-79
2024/01/04 03:21:11;;;;;;;1.48;0.47;;;5.70;99.90;;;;;;5057445;28;20616;-79
2024/01/04 03:23:39;;;;;;;0.30;0.20;;;5.80;99.90;;;;;;5055834;28;20199;-79
2024/01/04 03:26:06;;;;;;;0.30;0.20;;;5.80;99.90;;;;;;5063060;28;20206;-79
2024/01/04 03:28:34;;;;;;;0.40;0.20;;;5.80;99.90;;;;;;5054217;28;20294;-79
2024/01/04 03:31:02;;;;;;;0.30;0.20;;;5.80;99.90;;;;;;5057211;28;20211;-79
2024/01/04 03:33:30;;;;;;;0.30;0.20;;;5.80;99.90;;;;;;5056436;27;20223;-78
2024/01/04 03:35:57;;;;;;;0.50;0.20;;;5.80;99.90;;;;;;5051727;28;20196;-78
2024/01/04 03:38:24;;;;;;;0.30;0.20;;;5.80;99.90;;;;;;5051753;28;20196;-78
2024/01/04 03:40:52;;;;;;;0.65;0.38;;;5.80;99.90;;;;;;5051311;28;20203;-80
2024/01/04 03:43:19;;;;;;;0.88;0.20;;;5.80;99.90;;;;;;5046838;28;20568;-79
2024/01/04 03:45:46;;;;;;;0.40;0.20;;;5.80;99.90;;;;;;5048433;28;20297;-79
2024/01/04 03:48:13;;;;;;;0.30;0.10;;;5.80;99.90;;;;;;5044144;28;20257;-79
2024/01/04 03:50:41;;;;;;;0.30;0.20;;;5.80;99.90;;;;;;5042158;27;20666;-79
2024/01/04 03:53:08;;;;;;;0.40;0.30;;;5.80;99.90;;;;;;5046101;28;20641;-79
2024/01/04 03:55:35;;;;;;;0.30;0.20;;;5.80;99.90;;;;;;5035469;28;20594;-78
2024/01/04 03:58:02;;;;;;;0.30;0.25;;;5.80;99.90;;;;;;5044104;28;20232;-78
2024/01/04 04:00:28;;;;;;;0.40;0.20;;;5.80;99.90;;;;;;5048340;28;20753;-79
2024/01/04 04:02:55;;;;;;;0.50;0.30;;;5.90;99.90;;;;;;5042390;28;20211;-79
2024/01/04 04:05:21;;;;;;;0.38;0.30;;;5.90;99.90;;;;;;5039999;27;20207;-79
2024/01/04 04:07:49;;;;;;;0.30;0.20;;;5.90;99.90;;;;;;5047513;27;20196;-79
2024/01/04 04:10:16;;;;;;;0.32;0.32;;;5.90;99.90;;;;;;5086633;27;20724;-79
2024/01/04 04:12:43;;;;;;;0.50;0.40;;;6.00;99.90;;;;;;5080956;27;20204;-79
2024/01/04 04:15:10;;;;;;;0.50;0.32;;;6.10;99.90;;;;;;5096160;27;20215;-79
2024/01/04 04:17:36;;;;;;;0.30;0.20;;;6.10;99.90;;;;;;5082587;27;20207;-79
2024/01/04 04:20:04;;;;;;;0.50;0.50;;;6.20;99.90;;;;;;5092835;27;20255;-79
2024/01/04 04:22:31;;;;;;;0.38;0.20;;;6.20;99.90;;;;;;5056690;27;20278;-79
2024/01/04 04:24:59;;;;;;;0.30;0.20;;;6.10;99.90;;;;;;5033356;28;20228;-80
2024/01/04 04:27:26;;;;;;;0.40;0.30;;;6.20;99.90;;;;;;5032472;28;20213;-79
2024/01/04 04:29:53;;;;;;;0.50;0.40;;;6.20;99.90;;;;;;5042897;28;20552;-79
2024/01/04 04:32:19;;;;;;;0.40;0.30;;;6.30;99.90;;;;;;5041805;28;20204;-79
2024/01/04 04:34:46;;;;;;;0.30;0.30;;;6.30;99.90;;;;;;5041303;28;20208;-79
2024/01/04 04:37:14;;;;;;;0.40;0.40;;;6.30;99.90;;;;;;5042328;28;20201;-79
2024/01/04 04:39:41;;;;;;;0.60;0.50;;;6.30;99.90;;;;;;5049963;28;20728;-77
2024/01/04 04:42:09;;;;;;;0.30;0.17;;;6.30;99.90;;;;;;5049026;28;20210;-79
2024/01/04 04:44:36;;;;;;;0.30;0.30;;;6.40;99.90;;;;;;5055579;28;20207;-78
2024/01/04 04:47:03;;;;;;;0.60;0.45;;;6.40;99.90;;;;;;5056178;28;20214;-79
2024/01/04 04:49:30;;;;;;;0.40;0.28;;;6.40;99.90;;;;;;5048804;28;20204;-78
2024/01/04 04:51:57;;;;;;;0.40;0.40;;;6.30;99.90;;;;;;5048811;28;20200;-79
2024/01/04 04:54:24;;;;;;;1.00;0.60;;;6.40;99.90;;;;;;5054284;27;20707;-79
2024/01/04 04:56:51;;;;;;;0.90;0.75;;;6.40;99.90;;;;;;5050058;27;20207;-79
2024/01/04 04:59:19;;;;;;;0.40;0.35;;;6.50;99.90;;;;;;5046390;28;20945;-79
2024/01/04 05:01:46;;;;;;;0.50;0.40;;;6.50;99.90;;;;;;5051404;27;20205;-79
2024/01/04 05:04:13;;;;;;;0.40;0.40;;;6.50;99.90;;;;;;5051138;28;20291;-79
2024/01/04 05:06:40;;;;;;;0.32;0.32;;;6.50;99.90;;;;;;5040353;28;20751;-80
2024/01/04 05:09:07;;;;;;;0.40;0.30;;;6.50;99.90;;;;;;5052815;28;20246;-79
2024/01/04 05:11:34;;;;;;;0.30;0.20;;;6.50;99.90;;;;;;5041985;28;20222;-79
2024/01/04 05:14:02;;;;;;;0.98;0.50;;;6.40;99.90;;;;;;5046678;28;20197;-78
2024/01/04 05:16:30;;;;;;;0.60;0.32;;;6.40;99.90;;;;;;5048459;27;20617;-79
2024/01/04 05:18:57;;;;;;;0.95;0.30;;;6.40;99.90;;;;;;5046644;28;20194;-79
2024/01/04 05:21:23;;;;;;;1.92;0.65;;;6.40;99.90;;;;;;5043581;28;20196;-79
2024/01/04 05:23:50;;;;;;;0.55;0.55;;;6.40;99.90;;;;;;5046649;28;20211;-79
2024/01/04 05:26:23;;;;;;;2.15;0.60;;;6.40;99.90;;;;;;5044716;28;20202;-79
2024/01/04 05:28:50;;;;;;;0.30;0.20;;;6.40;99.90;;;;;;5041128;28;20291;-80
2024/01/04 05:31:20;;;;;;;0.40;0.30;;;6.40;99.90;;;;;;5034794;28;20201;-80
2024/01/04 05:33:48;;;;;;;0.60;0.50;;;6.40;99.90;;;;;;5037425;28;21011;-80
2024/01/04 05:36:15;;;;;;;1.08;0.43;;;6.40;99.90;;;;;;5045722;28;20656;-80
2024/01/04 05:38:42;;;;;;;0.50;0.50;;;6.40;99.90;;;;;;5050385;28;20278;-79
2024/01/04 05:41:09;;;;;;;2.78;1.38;;;6.50;99.90;;;;;;5054721;28;20575;-79
2024/01/04 05:43:35;;;;;;;0.40;0.20;;;6.40;99.90;;;;;;5049755;28;20225;-78
2024/01/04 05:46:04;;;;;;;1.05;0.68;;;6.40;99.90;;;;;;5056359;28;20200;-79
2024/01/04 05:48:31;;;;;;;1.00;0.30;;;6.40;99.90;;;;;;5053752;28;20212;-78
2024/01/04 05:50:59;;;;;;;0.40;0.30;;;6.40;99.90;;;;;;5049769;28;20204;-78
2024/01/04 05:53:26;;;;;;;0.85;0.25;;;6.50;99.90;;;;;;5054180;28;20682;-76
2024/01/04 05:55:53;;;;;;;0.40;0.40;;;6.40;99.90;;;;;;5046154;27;20219;-76
2024/01/04 05:58:20;;;;;;;0.43;0.43;;;6.50;99.90;;;;;;5054693;28;20200;-77
2024/01/04 06:00:47;;;;;;;0.30;0.20;;;6.50;99.90;;;;;;5053202;28;20544;-77
2024/01/04 06:03:14;;;;;;;0.88;0.40;;;6.40;99.90;;;;;;5055781;28;20200;-76
2024/01/04 06:05:41;;;;;;;0.63;0.35;;;6.40;99.90;;;;;;5052864;28;20198;-78
2024/01/04 06:08:09;;;;;;;0.65;0.63;;;6.40;99.90;;;;;;5052039;28;20207;-79
2024/01/04 06:10:36;;;;;;;1.48;0.40;;;6.40;99.90;;;;;;5040050;28;20678;-80
2024/01/04 06:13:03;;;;;;;3.28;0.50;;;6.40;99.90;;;;;;5045700;28;20196;-85
2024/01/04 06:15:29;;;;;;;5.18;0.50;;;6.40;99.90;;;;;;5045379;28;20211;-82
2024/01/04 06:17:56;;;;;;;0.40;0.30;;;6.40;99.90;;;;;;5038617;28;20270;-80
2024/01/04 06:20:23;;;;;;;0.75;0.50;;;6.50;99.90;;;;;;5042811;28;20229;-80
2024/01/04 06:22:51;;;;;;;0.70;0.60;;;6.50;99.90;;;;;;5047863;28;20199;-86
2024/01/04 06:25:19;;;;;;;0.40;0.20;;;6.40;99.90;;;;;;5042729;28;20224;-79
2024/01/04 06:27:46;;;;;;;0.30;0.30;;;6.40;99.90;;;;;;5036585;28;20200;-77
2024/01/04 06:30:13;;;;;;;2.25;0.43;;;6.50;99.90;;;;;;5045243;28;20200;-78
2024/01/04 06:32:40;;;;;;;5.95;0.63;;;6.50;99.90;;;;;;5041563;27;20205;-78
2024/01/04 06:35:08;;;;;;;0.95;0.57;;;6.50;99.90;;;;;;5044898;28;20717;-78
2024/01/04 06:37:34;;;;;;;0.40;0.35;;;6.50;99.90;;;;;;5052178;28;20199;-79
2024/01/04 06:40:05;;;;;;;0.35;0.35;;;6.50;99.90;;;;;;5051563;28;20234;-80
2024/01/04 06:42:36;;;;;;;3.85;0.45;;;6.40;99.90;;;;;;5054660;28;20733;-77
2024/01/04 06:45:04;;;;;;;0.50;0.32;;;6.50;99.90;;;;;;5042828;28;20200;-79
2024/01/04 06:47:30;;;;;;;0.50;0.50;;;6.50;99.90;;;;;;5037647;28;20218;-79
2024/01/04 06:49:57;;;;;;;1.40;0.50;;;6.50;99.90;;;;;;5042915;28;20211;-79
2024/01/04 06:52:24;;;;;;;0.50;0.50;;;6.50;99.90;;;;;;5048117;28;20215;-79
2024/01/04 06:54:51;;;;;;;0.43;0.43;;;6.50;99.90;;;;;;5048951;28;20198;-78
2024/01/04 06:57:18;;;;;;;0.30;0.30;;;6.60;99.90;;;;;;5058618;28;20604;-79
2024/01/04 06:59:46;;;;;;;0.30;0.30;;;6.60;99.90;;;;;;5048811;28;20230;-79
2024/01/04 07:02:13;;;;;;;0.40;0.35;;;6.60;99.90;;;;;;5049640;28;20192;-78
2024/01/04 07:04:40;;;;;;;1.42;0.60;;;6.50;99.90;;;;;;5055022;28;20286;-79
2024/01/04 07:07:07;;;;;;;0.57;0.40;;;6.60;99.90;;;;;;5049320;28;20655;-78
2024/01/04 07:09:36;;;;;;;1.75;0.65;;;6.50;99.90;;;;;;5053251;28;20205;-81
2024/01/04 07:12:03;;;;;;;2.25;0.35;;;6.50;99.90;;;;;;5045481;28;20213;-78
2024/01/04 07:14:30;;;;;;;0.30;0.20;;;6.40;99.90;;;;;;5051384;28;20568;-76
2024/01/04 07:16:58;;;;;;;0.50;0.40;;;6.50;99.90;;;;;;5041085;28;20288;-76
2024/01/04 07:19:25;;;;;;;0.30;0.22;;;6.40;99.90;;;;;;5044767;28;20190;-76
2024/01/04 07:21:52;;;;;;;0.30;0.20;;;6.40;99.90;;;;;;5035834;28;20204;-76
2024/01/04 07:24:19;;;;;;;1.35;1.10;;;6.40;99.90;;;;;;5038263;28;20204;-76
2024/01/04 07:26:45;;;;;;;0.70;0.40;;;6.40;99.90;;;;;;5043687;27;20196;-76
2024/01/04 07:29:13;;;;;;;0.88;0.60;;;6.40;99.90;;;;;;5037460;28;20196;-76
2024/01/04 07:31:40;;;;;;;0.57;0.57;;;6.30;99.90;;;;;;5033751;28;20554;-76
2024/01/04 07:34:08;;;;;;;0.30;0.30;;;6.30;99.90;;;;;;5039933;28;20196;-76
2024/01/04 07:36:35;;;;;;;2.58;0.60;;;6.30;99.90;;;;;;5042609;28;20204;-76
2024/01/04 07:39:03;;;;;;;0.40;0.40;;;6.30;99.90;;;;;;5055863;28;20664;-76
2024/01/04 07:41:30;;;;;;;0.98;0.63;;;6.30;99.90;;;;;;5045279;27;20232;-76
2024/01/04 07:43:56;;;;;;;0.63;0.57;;;6.20;99.90;;;;;;5048064;28;20212;-76
2024/01/04 07:46:23;;;;;;;0.63;0.47;;;6.20;99.90;;;;;;5046206;28;20203;-76
2024/01/04 07:48:50;;;;;;;0.70;0.45;;;6.20;99.90;;;;;;5052003;28;20219;-77
2024/01/04 07:51:18;;;;;;;0.60;0.40;;;6.20;99.90;;;;;;5049276;28;20203;-77
2024/01/04 07:53:45;;;;;;;0.57;0.57;;;6.20;99.90;;;;;;5048563;27;20218;-77
2024/01/04 07:56:11;;;;;;;1.67;0.30;;;6.20;99.90;;;;;;5056474;28;20231;-76
2024/01/04 07:58:38;;;;;;;0.82;0.70;;;6.00;99.90;;;;;;5057604;27;20192;-76
2024/01/04 08:01:05;;;;;;;4.90;1.30;;;6.10;99.90;;;;;;5075303;27;20338;-76
2024/01/04 08:03:32;;;;;;;0.63;0.63;;;6.10;99.90;;;;;;5044116;27;20206;-76
2024/01/04 08:05:59;;;;;;;1.95;0.60;;;5.90;99.90;;;;;;5049057;27;20196;-77
2024/01/04 08:08:28;;;;;;;0.30;0.20;;;5.90;99.90;;;;;;5034770;28;20273;-76
2024/01/04 08:10:55;;;;;;;0.50;0.50;;;5.90;99.90;;;;;;5036577;27;20205;-76
2024/01/04 08:13:22;;;;;;;0.30;0.30;;;5.90;99.90;;;;;;5047516;27;20668;-76
2024/01/04 08:15:50;;;;;;;1.17;0.50;;;6.00;99.90;;;;;;5043326;27;20564;-76
2024/01/04 08:18:17;;;;;;;0.50;0.50;;;6.10;99.90;;;;;;5048597;27;20204;-76
2024/01/04 08:20:44;;;;;;;0.57;0.57;;;6.10;99.90;;;;;;5048762;27;20241;-75
2024/01/04 08:23:11;;;;;;;0.77;0.60;;;6.10;99.90;;;;;;5046109;27;20200;-75
2024/01/04 08:25:39;;;;;;;0.95;0.60;;;6.10;99.90;;;;;;5047904;27;20211;-75
2024/01/04 08:28:06;;;;;;;1.77;0.80;;;6.10;99.90;;;;;;5063549;27;20192;-75
2024/01/04 08:30:33;;;;;;;0.88;0.50;;;6.20;99.90;;;;;;5041451;27;20292;-75
2024/01/04 08:33:00;;;;;;;0.50;0.50;;;6.20;99.90;;;;;;5044345;27;20197;-75
2024/01/04 08:35:27;;;;;;;2.08;0.50;;;6.30;99.90;;;;;;5036691;27;20236;-75
2024/01/04 08:37:54;;;;;;;2.35;0.73;;;6.30;99.90;;;;;;5044911;27;20274;-75
2024/01/04 08:40:21;;;;;;;2.05;0.50;;;6.40;99.90;;;;;;5042190;27;20219;-75
2024/01/04 08:42:49;;;;;;;0.32;0.32;;;6.40;99.90;;;;;;5049486;27;20200;-75
2024/01/04 08:45:16;;;;;;;0.50;0.50;;;6.50;99.90;;;;;;5049689;27;20195;-75
2024/01/04 08:47:43;;;;;;;2.45;0.77;;;6.60;99.90;;;;;;5052157;28;20205;-75
2024/01/04 08:50:11;;;;;;;2.10;0.60;;;6.60;99.90;;;;;;5050274;28;20221;-75
2024/01/04 08:52:38;;;;;;;1.05;0.77;;;6.50;99.90;;;;;;5046050;28;20199;-75
2024/01/04 08:55:07;;;;;;;0.60;0.60;;;6.70;99.90;;;;;;5052689;28;20200;-75
2024/01/04 08:57:34;;;;;;;0.63;0.30;;;6.80;99.90;;;;;;5054694;27;20204;-75
2024/01/04 09:00:04;;;;;;;8.57;0.77;;;6.90;99.90;;;;;;5055397;27;20249;-75
2024/01/04 09:02:31;;;;;;;0.82;0.70;;;7.10;99.90;;;;;;5057699;27;20203;-75
2024/01/04 09:04:58;;;;;;;0.43;0.43;;;7.10;99.90;;;;;;5048806;27;20201;-75
2024/01/04 09:07:26;;;;;;;0.40;0.40;;;7.10;99.90;;;;;;5042647;27;21162;-75
2024/01/04 09:09:53;;;;;;;0.40;0.30;;;7.20;99.90;;;;;;5053543;27;20636;-75
2024/01/04 09:12:20;;;;;;;0.40;0.30;;;7.20;99.90;;;;;;5051920;28;20207;-75
2024/01/04 09:14:47;;;;;;;1.17;0.77;;;7.10;99.90;;;;;;5042548;27;20642;-76
2024/01/04 09:17:15;;;;;;;0.95;0.50;;;7.20;99.90;;;;;;5045512;28;20210;-75
2024/01/04 09:19:42;;;;;;;0.40;0.20;;;7.20;99.90;;;;;;5038425;28;20204;-75
2024/01/04 09:22:09;;;;;;;0.77;0.30;;;7.20;99.90;;;;;;5047059;27;20676;-76
2024/01/04 09:24:36;;;;;;;0.75;0.30;;;7.10;99.90;;;;;;5042934;27;20627;-75
2024/01/04 09:27:03;;;;;;;0.57;0.40;;;7.10;99.90;;;;;;5039700;27;20196;-76
2024/01/04 09:29:30;;;;;;;0.90;0.40;;;7.10;99.90;;;;;;5040977;28;20639;-76
2024/01/04 09:31:57;;;;;;;0.55;0.40;;;7.10;99.90;;;;;;5032007;27;20615;-75
2024/01/04 09:34:25;;;;;;;0.30;0.30;;;7.10;99.90;;;;;;5045154;27;20657;-76
2024/01/04 09:36:54;;;;;;;0.40;0.22;;;7.10;99.90;;;;;;5037473;27;20231;-76
2024/01/04 09:39:21;;;;;;;0.50;0.30;;;7.10;99.90;;;;;;5041386;27;20202;-76
2024/01/04 09:41:49;;;;;;;1.58;0.68;;;7.20;99.90;;;;;;5032619;27;20331;-75
2024/01/04 09:44:16;;;;;;;0.60;0.45;;;7.20;99.90;;;;;;5040906;28;20598;-76
2024/01/04 09:46:43;;;;;;;0.68;0.55;;;7.20;99.90;;;;;;5055053;28;20204;-76
2024/01/04 09:49:13;;;;;;;0.60;0.60;;;7.20;99.90;;;;;;5055867;28;20200;-76
2024/01/04 09:51:43;;;;;;;0.30;0.20;;;7.30;99.90;;;;;;5045170;27;20299;-76
2024/01/04 09:54:11;;;;;;;0.40;0.32;;;7.40;99.90;;;;;;5049249;28;20656;-76
2024/01/04 09:56:40;;;;;;;0.45;0.40;;;7.40;99.90;;;;;;5038362;28;20211;-76
2024/01/04 09:59:08;;;;;;;0.30;0.20;;;7.50;99.90;;;;;;5050592;28;20205;-76
2024/01/04 10:01:37;;;;;;;0.60;0.60;;;7.70;99.90;;;;;;5030921;28;20666;-76
2024/01/04 10:04:07;;;;;;;0.40;0.30;;;7.70;99.90;;;;;;5053519;28;21020;-76
2024/01/04 10:06:37;;;;;;;0.50;0.50;;;7.80;99.90;;;;;;5056296;27;20657;-76
2024/01/04 10:09:14;;;;;;;0.30;0.20;;;7.80;99.90;;;;;;5043825;27;20196;-76
2024/01/04 10:11:45;;;;;;;0.73;0.60;;;7.90;99.90;;;;;;5032301;28;21029;-76
2024/01/04 10:14:13;;;;;;;0.40;0.40;;;7.90;99.90;;;;;;5035871;28;20626;-76
2024/01/04 10:16:41;;;;;;;0.40;0.40;;;7.80;99.90;;;;;;5036767;27;20655;-75
2024/01/04 10:19:09;;;;;;;0.53;0.43;;;7.80;99.90;;;;;;5050825;27;20631;-75
2024/01/04 10:21:36;;;;;;;1.27;0.60;;;7.80;99.90;;;;;;5042866;28;20661;-75
2024/01/04 10:24:03;;;;;;;1.20;0.80;;;7.80;99.90;;;;;;5049521;27;20739;-75
2024/01/04 10:26:32;;;;;;;1.10;0.50;;;7.70;99.90;;;;;;5040679;27;20707;-75
2024/01/04 10:29:00;;;;;;;0.50;0.50;;;7.70;99.90;;;;;;5036204;28;20987;-75
2024/01/04 10:31:27;;;;;;;0.73;0.47;;;7.60;99.90;;;;;;5043583;27;20622;-75
2024/01/04 10:33:57;;;;;;;2.70;0.73;;;7.50;99.90;;;;;;5044983;27;20627;-75
2024/01/04 10:36:28;;;;;;;3.13;0.93;;;7.40;99.90;;;;;;5045197;27;20627;-76
2024/01/04 10:38:56;;;;;;;1.48;0.60;;;7.40;99.90;;;;;;5044025;27;20627;-75
2024/01/04 10:41:22;;;;;;;0.40;0.32;;;7.30;99.90;;;;;;5035014;27;20645;-75
2024/01/04 10:43:50;;;;;;;0.43;0.43;;;7.10;99.90;;;;;;5038701;27;20533;-75
2024/01/04 10:46:18;;;;;;;1.05;1.05;;;7.10;99.90;;;;;;5058807;27;20196;-75
2024/01/04 10:48:48;;;;;;;0.40;0.30;;;7.00;99.90;;;;;;5050110;27;20213;-75
2024/01/04 10:51:18;;;;;;;0.40;0.40;;;7.00;99.90;;;;;;5030757;27;20538;-75
2024/01/04 10:53:46;;;;;;;0.50;0.30;;;7.00;99.90;;;;;;5045193;28;20620;-75
2024/01/04 10:56:14;;;;;;;3.45;1.13;;;7.00;99.90;;;;;;5043498;28;20206;-75
2024/01/04 10:58:41;;;;;;;0.30;0.30;;;6.90;99.90;;;;;;5046013;27;20289;-76
2024/01/04 11:01:10;;;;;;;1.48;0.60;;;6.80;99.90;;;;;;5050775;27;20244;-76
2024/01/04 11:03:41;;;;;;;2.97;0.63;;;6.90;99.90;;;;;;5052820;27;20196;-76
2024/01/04 11:06:08;;;;;;;0.30;0.30;;;6.90;99.90;;;;;;5049257;27;20231;-76
2024/01/04 11:08:38;;;;;;;0.40;0.30;;;6.90;99.90;;;;;;5056455;27;20290;-76
2024/01/04 11:11:07;;;;;;;0.60;0.40;;;6.90;99.90;;;;;;5045195;27;20211;-76
2024/01/04 11:13:34;;;;;;;3.00;0.88;;;7.10;99.90;;;;;;5051658;27;20210;-77
2024/01/04 11:16:25;;;;;;;0.75;0.30;;;7.00;99.90;;;;;;5027549;28;20683;-75
2024/01/04 11:19:04;;;;;;;1.70;1.23;;;7.10;99.90;;;;;;5038037;27;20290;-76
2024/01/04 11:21:43;;;;;;;2.10;0.47;;;7.30;99.90;;;;;;5045014;27;20231;-76
2024/01/04 11:24:23;;;;;;;0.43;0.30;;;7.30;99.90;;;;;;5037569;28;20209;-77
2024/01/04 11:26:56;;;;;;;4.80;1.02;;;7.40;99.90;;;;;;5043220;27;20631;-76
2024/01/04 11:29:24;;;;;;;1.00;0.90;;;7.40;99.90;;;;;;5041833;27;20658;-77
2024/01/04 11:31:50;;;;;;;1.10;0.57;;;7.40;99.90;;;;;;5038141;27;21192;-77
2024/01/04 11:34:20;;;;;;;2.35;1.17;;;7.40;99.90;;;;;;5030694;27;20623;-76
2024/01/04 11:36:49;;;;;;;1.25;1.13;;;7.40;99.90;;;;;;5046167;27;20199;-78
2024/01/04 11:39:26;;;;;;;0.67;0.47;;;7.40;99.90;;;;;;5041470;27;20200;-79
2024/01/04 11:41:53;;;;;;;1.33;0.40;;;7.50;99.90;;;;;;5038378;27;20665;-78
2024/01/04 11:44:19;;;;;;;0.77;0.50;;;7.60;99.90;;;;;;5042680;27;20631;-78
2024/01/04 11:46:46;;;;;;;0.80;0.50;;;7.60;99.90;;;;;;5059272;27;20621;-77
2024/01/04 11:49:15;;;;;;;0.70;0.37;;;7.70;99.90;;;;;;5058083;28;20637;-79
2024/01/04 11:51:46;;;;;;;1.43;0.73;;;7.80;99.90;;;;;;5036411;28;20627;-76
2024/01/04 11:54:14;;;;;;;0.60;0.47;;;7.80;99.90;;;;;;5044321;28;21019;-76
2024/01/04 11:56:41;;;;;;;0.60;0.60;;;7.80;99.90;;;;;;5053449;28;21223;-77
2024/01/04 11:59:09;;;;;;;1.23;0.83;;;7.80;99.90;;;;;;5054014;28;20626;-77
2024/01/04 12:01:38;;;;;;;4.55;1.08;;;7.70;99.90;;;;;;5053988;28;20680;-77
2024/01/04 12:04:09;;;;;;;0.80;0.52;;;7.50;99.90;;;;;;5061209;27;20569;-79
2024/01/04 12:06:38;;;;;;;2.58;1.00;;;7.30;99.90;;;;;;5063183;27;20203;-78
2024/01/04 12:09:07;;;;;;;0.88;0.82;;;7.30;99.90;;;;;;5051773;27;20200;-78
2024/01/04 12:11:34;;;;;;;2.10;1.50;;;7.30;99.90;;;;;;5056074;27;20206;-77
2024/01/04 12:14:03;;;;;;;0.73;0.73;;;7.20;99.90;;;;;;5054980;28;20561;-76
2024/01/04 12:16:30;;;;;;;0.68;0.68;;;7.10;99.90;;;;;;5039761;28;20656;-77
2024/01/04 12:18:57;;;;;;;2.90;1.02;;;7.10;99.90;;;;;;5051690;28;20553;-78
2024/01/04 12:21:25;;;;;;;1.23;1.13;;;7.00;99.90;;;;;;5048526;27;20258;-79
2024/01/04 12:23:52;;;;;;;0.82;0.77;;;7.10;99.90;;;;;;5056451;27;20218;-78
2024/01/04 12:26:23;;;;;;;1.40;0.60;;;7.10;99.90;;;;;;5055163;27;20242;-79
2024/01/04 12:28:51;;;;;;;0.40;0.30;;;7.10;99.90;;;;;;5048186;27;20199;-79
2024/01/04 12:31:19;;;;;;;0.40;0.40;;;7.20;99.90;;;;;;5045515;27;20208;-77
2024/01/04 12:33:50;;;;;;;0.80;0.43;;;7.20;99.90;;;;;;5040467;27;20203;-78
2024/01/04 12:36:21;;;;;;;6.95;0.88;;;7.30;99.90;;;;;;5038610;27;20201;-86
2024/01/04 12:38:48;;;;;;;1.73;0.60;;;7.40;99.90;;;;;;5039122;27;20259;-87
2024/01/04 12:41:24;;;;;;;1.05;0.70;;;7.50;99.90;;;;;;5034393;28;20284;-87
2024/01/04 12:43:53;;;;;;;2.90;1.70;;;7.50;99.90;;;;;;5048091;27;20637;-86
2024/01/04 12:46:21;;;;;;;2.30;0.80;;;7.60;99.90;;;;;;5041458;28;21035;-86
2024/01/04 12:48:47;;;;;;;1.65;0.45;;;7.60;99.90;;;;;;5051162;27;20746;-86
2024/01/04 12:51:15;;;;;;;2.33;0.73;;;7.70;99.90;;;;;;5047709;28;20199;-86
2024/01/04 12:53:42;;;;;;;0.40;0.40;;;7.70;99.90;;;;;;5057109;27;20627;-87
2024/01/04 12:56:09;;;;;;;0.60;0.60;;;7.70;99.90;;;;;;5053279;27;20291;-86
2024/01/04 12:58:38;;;;;;;0.70;0.70;;;7.70;99.90;;;;;;5057555;28;21120;-86
2024/01/04 13:01:04;;;;;;;0.87;0.53;;;7.70;99.90;;;;;;5056598;28;20611;-88